Time;durP1;ratioP1;P1;durP2;ratioP2;P2;SDS_P1;SDS_P2;PMS_P1;PMS_P2;Temp;Humidity;BMP_temperature;BMP_pressure;BME280_temperature;BME280_humidity;BME280_pressure;Samples;Min_cycle;Max_cycle;Signal;HPM_P1;HPM_P2
2022/05/11 00:01:57;;;;;;;9.13;3.58;;;12.60;99.90;;;;;;6371199;22;20014;-68
2022/05/11 00:04:23;;;;;;;8.13;3.83;;;12.50;99.90;;;;;;6370056;22;20517;-73
2022/05/11 00:06:49;;;;;;;9.77;3.83;;;12.50;99.90;;;;;;6368500;22;20018;-71
2022/05/11 00:09:17;;;;;;;8.85;3.92;;;12.50;99.90;;;;;;6369844;22;20573;-67
2022/05/11 00:11:44;;;;;;;8.45;3.90;;;12.60;99.90;;;;;;6370310;22;20021;-70
2022/05/11 00:14:11;;;;;;;11.35;3.75;;;12.60;99.90;;;;;;6369964;22;20022;-67
2022/05/11 00:16:37;;;;;;;9.20;3.55;;;12.60;99.90;;;;;;6369891;22;20518;-76
2022/05/11 00:19:03;;;;;;;10.00;3.95;;;12.60;99.90;;;;;;6369810;22;20018;-67
2022/05/11 00:21:30;;;;;;;9.93;3.75;;;12.60;99.90;;;;;;6370139;22;20014;-69
2022/05/11 00:23:55;;;;;;;10.40;3.88;;;12.70;99.90;;;;;;6369777;22;20007;-71
2022/05/11 00:26:21;;;;;;;10.13;3.92;;;12.70;99.90;;;;;;6368191;22;20437;-69
2022/05/11 00:28:47;;;;;;;12.15;4.05;;;12.80;99.90;;;;;;6369214;22;20340;-68
2022/05/11 00:31:12;;;;;;;9.65;3.70;;;12.70;99.90;;;;;;6369748;22;20049;-68
2022/05/11 00:33:38;;;;;;;8.77;4.15;;;12.70;99.90;;;;;;6370157;22;20029;-67
2022/05/11 00:36:12;;;;;;;11.85;3.70;;;12.80;99.90;;;;;;6370200;22;20010;-67
2022/05/11 00:38:40;;;;;;;9.00;3.78;;;12.80;99.90;;;;;;6369667;22;20436;-67
2022/05/11 00:41:06;;;;;;;9.57;3.47;;;12.80;99.90;;;;;;6369076;22;20089;-69
2022/05/11 00:43:40;;;;;;;9.88;3.63;;;12.80;99.90;;;;;;6369687;22;20074;-68
2022/05/11 00:46:34;;;;;;;9.75;4.07;;;12.80;99.90;;;;;;6369759;22;20022;-67
2022/05/11 00:51:55;;;;;;;9.63;3.53;;;12.90;99.90;;;;;;6369360;22;20054;-66
2022/05/11 00:54:22;;;;;;;12.75;3.67;;;12.80;99.90;;;;;;6369883;22;20021;-69
2022/05/11 00:56:57;;;;;;;11.30;3.67;;;12.80;99.90;;;;;;6368911;22;20033;-69
2022/05/11 00:59:27;;;;;;;8.00;3.42;;;12.80;99.90;;;;;;6369702;22;20014;-69
2022/05/11 01:01:55;;;;;;;12.70;4.32;;;12.80;99.90;;;;;;6369438;22;20443;-68
2022/05/11 01:04:22;;;;;;;9.60;4.07;;;12.80;99.90;;;;;;6369659;22;20055;-68
2022/05/11 01:06:48;;;;;;;12.90;4.00;;;12.80;99.90;;;;;;6369759;22;20029;-67
2022/05/11 01:09:14;;;;;;;9.68;4.20;;;12.90;99.90;;;;;;6369426;22;20483;-66
2022/05/11 01:11:49;;;;;;;11.60;3.70;;;12.80;99.90;;;;;;6369222;22;20014;-76
2022/05/11 01:14:21;;;;;;;8.55;3.63;;;13.00;99.90;;;;;;6369580;22;20018;-70
2022/05/11 01:16:47;;;;;;;11.82;3.90;;;12.90;99.90;;;;;;6367874;22;20021;-68
2022/05/11 01:19:26;;;;;;;8.85;3.80;;;12.90;99.90;;;;;;6369570;22;20018;-75
2022/05/11 01:22:33;;;;;;;10.43;3.55;;;12.90;99.90;;;;;;6367739;22;20022;-76
2022/05/11 01:24:59;;;;;;;11.18;3.65;;;12.90;99.90;;;;;;6247390;22;20016;-67
2022/05/11 01:27:38;;;;;;;11.05;3.88;;;12.90;99.90;;;;;;6272024;22;20027;-68
2022/05/11 01:30:17;;;;;;;8.43;3.97;;;12.90;99.90;;;;;;6272768;22;20012;-68
2022/05/11 01:32:45;;;;;;;9.57;3.53;;;12.90;99.90;;;;;;6272663;22;20091;-67
2022/05/11 01:35:48;;;;;;;10.75;4.07;;;12.90;99.90;;;;;;6272923;22;20011;-68
2022/05/11 01:38:34;;;;;;;12.25;4.05;;;12.90;99.90;;;;;;6272783;22;20015;-76
2022/05/11 01:41:00;;;;;;;9.25;3.45;;;12.90;99.90;;;;;;6272996;22;20026;-68
2022/05/11 01:43:29;;;;;;;10.23;3.30;;;12.90;99.90;;;;;;6272076;22;20019;-67
2022/05/11 01:45:55;;;;;;;8.82;3.25;;;12.90;99.90;;;;;;6246943;22;20019;-67
2022/05/11 01:48:21;;;;;;;8.98;3.53;;;12.90;99.90;;;;;;6272698;22;20410;-66
2022/05/11 01:50:47;;;;;;;16.88;3.65;;;12.90;99.90;;;;;;6272569;22;20494;-73
2022/05/11 01:53:13;;;;;;;8.75;3.30;;;12.90;99.90;;;;;;6272794;22;20059;-68
2022/05/11 01:55:39;;;;;;;9.95;3.60;;;12.90;99.90;;;;;;6319915;22;20094;-69
2022/05/11 01:58:09;;;;;;;11.55;3.33;;;12.90;99.90;;;;;;6367263;22;20029;-67
2022/05/11 02:00:36;;;;;;;9.98;3.70;;;12.90;99.90;;;;;;6367240;22;20022;-68
2022/05/11 02:03:03;;;;;;;10.88;3.70;;;13.00;99.90;;;;;;6369416;22;20011;-68
2022/05/11 02:08:13;;;;;;;8.82;3.03;;;12.80;99.90;;;;;;6369255;22;20015;-65
2022/05/11 02:10:39;;;;;;;8.63;3.40;;;12.80;99.90;;;;;;6369090;22;20381;-73
2022/05/11 02:13:05;;;;;;;11.07;3.80;;;12.80;99.90;;;;;;6368445;22;20014;-76
2022/05/11 02:15:31;;;;;;;9.43;3.60;;;12.80;99.90;;;;;;6369238;22;20014;-67
2022/05/11 02:17:56;;;;;;;9.32;3.78;;;12.80;99.90;;;;;;6369125;22;20051;-72
2022/05/11 02:20:23;;;;;;;7.45;3.30;;;12.90;99.90;;;;;;6369119;22;20014;-68
2022/05/11 02:22:51;;;;;;;10.20;3.55;;;12.80;99.90;;;;;;6369132;22;20010;-76
2022/05/11 02:25:18;;;;;;;11.60;3.60;;;12.90;99.90;;;;;;6368947;22;20025;-74
2022/05/11 02:27:45;;;;;;;10.18;4.18;;;12.80;99.90;;;;;;6368424;22;20394;-68
2022/05/11 02:30:15;;;;;;;11.50;3.75;;;13.00;99.90;;;;;;6368881;22;20022;-65
2022/05/11 02:32:41;;;;;;;8.43;3.53;;;12.70;99.90;;;;;;6368729;22;20060;-67
2022/05/11 02:35:13;;;;;;;8.45;3.40;;;12.70;99.90;;;;;;6369354;22;20022;-72
2022/05/11 02:37:42;;;;;;;10.13;3.90;;;12.70;99.90;;;;;;6369157;22;20021;-75
2022/05/11 02:40:08;;;;;;;12.68;4.03;;;12.70;99.90;;;;;;6369019;22;20025;-68
2022/05/11 02:42:34;;;;;;;7.50;3.15;;;12.70;99.90;;;;;;6369278;22;20095;-76
2022/05/11 02:45:00;;;;;;;8.68;3.72;;;12.70;99.90;;;;;;6369741;22;20018;-72
2022/05/11 02:47:25;;;;;;;9.02;3.58;;;12.60;99.90;;;;;;6371102;22;20010;-66
2022/05/11 02:49:51;;;;;;;8.18;3.47;;;12.70;99.90;;;;;;6371199;22;20074;-74
2022/05/11 02:52:17;;;;;;;8.85;3.50;;;12.70;99.90;;;;;;6370643;22;20022;-66
2022/05/11 02:54:46;;;;;;;10.38;3.88;;;12.70;99.90;;;;;;6370862;22;20021;-66
2022/05/11 02:57:13;;;;;;;8.70;3.15;;;12.70;99.90;;;;;;6368886;22;20040;-67
2022/05/11 02:59:38;;;;;;;10.15;3.65;;;12.80;99.90;;;;;;6370428;22;20015;-66
2022/05/11 03:02:04;;;;;;;8.57;3.92;;;12.80;99.90;;;;;;6370423;22;20029;-65
2022/05/11 03:04:30;;;;;;;9.50;3.63;;;12.80;99.90;;;;;;6371037;22;20014;-69
2022/05/11 03:06:56;;;;;;;10.40;3.97;;;12.80;99.90;;;;;;6370759;22;20095;-75
2022/05/11 03:09:21;;;;;;;9.65;3.67;;;12.80;99.90;;;;;;6370926;22;20082;-68
2022/05/11 03:11:47;;;;;;;11.10;3.75;;;12.90;99.90;;;;;;6370988;22;20018;-67
2022/05/11 03:14:13;;;;;;;8.75;3.80;;;13.00;99.90;;;;;;6370480;22;20017;-69
2022/05/11 03:16:40;;;;;;;11.52;3.90;;;13.00;99.90;;;;;;6370318;22;20393;-69
2022/05/11 03:19:06;;;;;;;9.32;3.67;;;12.90;99.90;;;;;;6370370;22;20025;-69
2022/05/11 03:21:32;;;;;;;9.85;3.70;;;12.90;99.90;;;;;;6369267;22;20079;-73
2022/05/11 03:23:58;;;;;;;9.95;3.70;;;12.90;99.90;;;;;;6370882;22;20022;-66
2022/05/11 03:26:24;;;;;;;9.23;4.07;;;12.90;99.90;;;;;;6370124;22;20013;-66
2022/05/11 03:28:50;;;;;;;12.45;4.20;;;12.90;99.90;;;;;;6370513;22;20054;-68
2022/05/11 03:31:18;;;;;;;9.60;4.22;;;12.90;99.90;;;;;;6368528;22;20048;-65
2022/05/11 03:36:28;;;;;;;10.43;4.05;;;12.90;99.90;;;;;;6369951;22;20050;-66
2022/05/11 03:38:54;;;;;;;10.13;4.50;;;12.90;99.90;;;;;;6370104;22;20060;-66
2022/05/11 03:41:20;;;;;;;12.02;4.03;;;13.00;99.90;;;;;;6370343;22;20010;-67
2022/05/11 03:43:45;;;;;;;9.70;4.10;;;12.90;99.90;;;;;;6368636;22;20030;-68
2022/05/11 03:46:11;;;;;;;9.20;3.83;;;13.00;99.90;;;;;;6369524;22;20509;-73
2022/05/11 03:48:37;;;;;;;9.00;3.80;;;13.00;99.90;;;;;;6367681;22;20015;-74
2022/05/11 03:51:04;;;;;;;8.93;3.75;;;12.90;99.90;;;;;;6370258;22;20340;-68
2022/05/11 03:53:31;;;;;;;9.43;3.50;;;13.00;99.90;;;;;;6370603;22;20095;-67
2022/05/11 03:55:56;;;;;;;9.55;3.42;;;13.00;99.90;;;;;;6370210;22;20017;-68
2022/05/11 03:58:22;;;;;;;10.60;3.45;;;13.00;99.90;;;;;;6370062;22;20049;-68
2022/05/11 04:00:48;;;;;;;9.27;4.03;;;13.00;99.90;;;;;;6341024;22;20019;-69
2022/05/11 04:03:13;;;;;;;9.98;4.00;;;13.10;99.90;;;;;;6369986;22;20428;-70
2022/05/11 04:05:39;;;;;;;9.93;3.83;;;13.10;99.90;;;;;;6368731;22;20049;-69
2022/05/11 04:08:05;;;;;;;10.57;3.33;;;13.10;99.90;;;;;;6370411;22;20021;-70
2022/05/11 04:10:31;;;;;;;10.40;3.72;;;13.10;99.90;;;;;;6370469;22;20079;-67
2022/05/11 04:12:56;;;;;;;9.77;3.97;;;13.10;99.90;;;;;;6370323;22;20067;-66
2022/05/11 04:15:22;;;;;;;9.52;3.40;;;13.10;99.90;;;;;;6370198;22;20053;-66
2022/05/11 04:17:48;;;;;;;10.98;3.70;;;13.10;99.90;;;;;;6369613;22;20025;-66
2022/05/11 04:20:17;;;;;;;13.60;3.97;;;13.10;99.90;;;;;;6369687;22;20177;-68
2022/05/11 04:22:43;;;;;;;8.98;3.47;;;13.10;99.90;;;;;;6369790;22;20500;-68
2022/05/11 04:25:10;;;;;;;13.20;3.70;;;13.10;99.90;;;;;;6369793;22;20089;-67
2022/05/11 04:27:36;;;;;;;7.68;3.10;;;13.20;99.90;;;;;;6369321;22;20447;-75
2022/05/11 04:30:04;;;;;;;8.38;3.72;;;13.20;99.90;;;;;;6367690;22;20098;-67
2022/05/11 04:32:30;;;;;;;10.07;3.90;;;13.20;99.90;;;;;;6369313;22;20014;-67
2022/05/11 04:34:56;;;;;;;10.95;3.85;;;13.20;99.90;;;;;;6369758;22;20416;-68
2022/05/11 04:37:21;;;;;;;13.95;4.03;;;13.30;99.90;;;;;;6369871;22;20343;-73
2022/05/11 04:39:47;;;;;;;9.38;3.63;;;13.30;99.90;;;;;;6369783;22;20006;-76
2022/05/11 04:42:14;;;;;;;11.27;3.80;;;13.30;99.90;;;;;;6369830;22;20015;-75
2022/05/11 04:44:40;;;;;;;11.52;3.63;;;13.30;99.90;;;;;;6368016;22;20021;-73
2022/05/11 04:47:14;;;;;;;11.05;4.03;;;13.40;99.90;;;;;;6369775;22;20010;-72
2022/05/11 04:49:40;;;;;;;12.85;4.25;;;13.30;99.90;;;;;;6369556;22;20336;-76
2022/05/11 04:52:13;;;;;;;9.75;3.67;;;13.30;99.90;;;;;;6369997;22;20018;-76
2022/05/11 04:54:46;;;;;;;10.50;4.05;;;13.40;99.90;;;;;;6369811;22;20014;-76
2022/05/11 04:57:12;;;;;;;11.13;3.80;;;13.30;99.90;;;;;;6367739;22;20010;-75
2022/05/11 04:59:41;;;;;;;11.40;3.85;;;13.40;99.90;;;;;;6369067;22;20101;-76
2022/05/11 05:02:12;;;;;;;10.07;3.80;;;13.40;99.90;;;;;;6369535;22;20022;-75
2022/05/11 05:04:38;;;;;;;11.77;4.45;;;13.50;99.90;;;;;;6369343;22;20014;-77
2022/05/11 05:07:04;;;;;;;14.40;3.83;;;13.50;99.90;;;;;;6369064;22;20015;-73
2022/05/11 05:09:29;;;;;;;8.88;3.58;;;13.50;99.90;;;;;;6369559;22;20025;-76
2022/05/11 05:11:55;;;;;;;11.70;4.40;;;13.50;99.90;;;;;;6369439;22;20066;-75
2022/05/11 05:14:21;;;;;;;11.38;4.85;;;13.50;99.90;;;;;;6369290;22;20016;-72
2022/05/11 05:16:48;;;;;;;12.18;4.30;;;13.60;99.90;;;;;;6369552;22;20021;-68
2022/05/11 05:19:14;;;;;;;10.30;4.45;;;13.60;99.90;;;;;;6369098;22;20014;-76
2022/05/11 05:21:40;;;;;;;9.70;4.50;;;13.60;99.90;;;;;;6372602;22;20140;-67
2022/05/11 05:24:06;;;;;;;10.35;3.92;;;13.80;99.90;;;;;;6373542;22;20014;-74
2022/05/11 05:26:32;;;;;;;11.85;4.00;;;13.70;99.90;;;;;;6372573;22;20010;-73
2022/05/11 05:31:42;;;;;;;10.05;3.80;;;13.80;99.90;;;;;;6369975;22;20192;-68
2022/05/11 05:34:08;;;;;;;7.55;3.63;;;13.80;99.90;;;;;;6369173;22;20056;-71
2022/05/11 05:36:36;;;;;;;12.23;3.92;;;13.80;99.90;;;;;;6369625;22;20448;-74
2022/05/11 05:39:03;;;;;;;10.40;4.00;;;13.90;99.90;;;;;;6370046;22;20425;-68
2022/05/11 05:41:29;;;;;;;11.48;4.00;;;13.90;99.90;;;;;;6369783;22;20011;-66
2022/05/11 05:43:56;;;;;;;10.82;4.40;;;13.90;99.90;;;;;;6369682;22;20018;-74
2022/05/11 05:46:24;;;;;;;10.45;4.45;;;14.10;99.90;;;;;;6369733;22;20102;-67
2022/05/11 05:48:50;;;;;;;12.07;4.80;;;14.00;99.90;;;;;;6369706;22;20045;-65
2022/05/11 05:51:17;;;;;;;12.32;4.43;;;14.10;99.90;;;;;;6369091;22;20098;-67
2022/05/11 05:53:45;;;;;;;13.90;4.60;;;14.00;99.90;;;;;;6369830;22;20305;-76
2022/05/11 05:56:12;;;;;;;10.10;4.63;;;14.10;99.90;;;;;;6369388;22;20014;-75
2022/05/11 05:58:38;;;;;;;11.10;4.13;;;14.00;99.90;;;;;;6369285;22;20049;-67
2022/05/11 06:01:05;;;;;;;11.35;4.65;;;14.10;99.90;;;;;;6369672;22;20018;-67
2022/05/11 06:03:34;;;;;;;10.25;4.68;;;14.10;99.90;;;;;;6369353;22;20021;-67
2022/05/11 06:05:59;;;;;;;13.95;4.80;;;14.20;99.90;;;;;;6369225;22;20014;-67
2022/05/11 06:08:26;;;;;;;11.68;4.82;;;14.20;99.90;;;;;;6368862;22;20021;-70
2022/05/11 06:10:53;;;;;;;11.93;5.55;;;14.20;99.90;;;;;;6369410;22;20046;-69
2022/05/11 06:13:22;;;;;;;11.38;4.63;;;14.30;99.90;;;;;;6369082;22;20022;-73
2022/05/11 06:15:49;;;;;;;12.98;4.90;;;14.30;99.90;;;;;;6369245;22;20015;-74
2022/05/11 06:18:16;;;;;;;12.65;4.82;;;14.40;99.90;;;;;;6341411;22;20517;-68
2022/05/11 06:20:41;;;;;;;10.57;4.68;;;14.40;99.90;;;;;;6371054;22;20020;-68
2022/05/11 06:23:08;;;;;;;12.57;6.00;;;14.40;99.90;;;;;;6370822;22;20479;-66
2022/05/11 06:25:37;;;;;;;12.38;5.68;;;14.50;99.90;;;;;;6371409;22;20373;-70
2022/05/11 06:28:06;;;;;;;15.48;5.68;;;14.60;99.90;;;;;;6368588;22;20022;-70
2022/05/11 06:30:33;;;;;;;13.82;6.53;;;14.70;99.90;;;;;;6371569;22;20400;-68
2022/05/11 06:33:00;;;;;;;14.45;5.90;;;14.70;99.90;;;;;;6371246;22;20063;-65
2022/05/11 06:35:27;;;;;;;14.95;6.43;;;14.80;99.90;;;;;;6371405;22;20080;-73
2022/05/11 06:37:54;;;;;;;14.50;6.53;;;14.80;99.90;;;;;;6367289;22;20015;-69
2022/05/11 06:40:21;;;;;;;13.90;6.57;;;14.90;99.90;;;;;;6370856;22;20014;-76
2022/05/11 06:42:48;;;;;;;15.88;6.22;;;14.90;99.90;;;;;;6371001;22;20014;-71
2022/05/11 06:45:15;;;;;;;13.82;5.43;;;15.10;99.90;;;;;;6371011;22;20017;-71
2022/05/11 06:47:41;;;;;;;14.93;6.07;;;15.30;99.90;;;;;;6371030;22;20010;-69
2022/05/11 06:50:08;;;;;;;15.18;5.82;;;15.20;99.90;;;;;;6370328;22;20010;-70
2022/05/11 06:52:34;;;;;;;14.80;5.43;;;15.30;99.90;;;;;;6370872;22;20019;-71
2022/05/11 07:00:30;;;;;;;15.65;5.72;;;15.60;99.90;;;;;;6370709;22;20023;-68
2022/05/11 07:02:56;;;;;;;15.02;5.72;;;15.70;99.90;;;;;;6370869;22;20018;-73
2022/05/11 07:05:21;;;;;;;13.68;5.40;;;15.80;99.90;;;;;;6370481;22;20327;-72
2022/05/11 07:07:47;;;;;;;13.02;5.38;;;15.80;99.90;;;;;;6370394;22;20015;-71
2022/05/11 07:10:13;;;;;;;11.40;4.57;;;15.90;99.90;;;;;;6368803;22;20011;-70
2022/05/11 07:12:45;;;;;;;14.68;5.70;;;15.90;99.90;;;;;;6369176;22;20435;-73
2022/05/11 07:15:12;;;;;;;12.00;5.53;;;15.90;99.90;;;;;;6370852;22;20336;-71
2022/05/11 07:17:40;;;;;;;15.50;5.07;;;15.90;99.90;;;;;;6370272;22;20025;-70
2022/05/11 07:20:06;;;;;;;9.38;4.05;;;15.80;99.90;;;;;;6370799;22;20018;-71
2022/05/11 07:22:32;;;;;;;12.75;4.68;;;15.80;99.90;;;;;;6368043;22;20029;-73
2022/05/11 07:24:57;;;;;;;12.57;4.05;;;16.00;99.90;;;;;;6362057;22;20007;-66
2022/05/11 07:27:24;;;;;;;13.98;4.20;;;15.90;99.90;;;;;;6362864;22;20462;-66
2022/05/11 07:29:51;;;;;;;13.45;3.92;;;16.00;99.90;;;;;;6362326;22;20025;-64
2022/05/11 07:32:17;;;;;;;20.73;4.57;;;16.00;99.90;;;;;;6363479;22;20043;-67
2022/05/11 07:34:43;;;;;;;15.85;4.40;;;16.10;99.90;;;;;;6360587;22;20059;-68
2022/05/11 07:37:08;;;;;;;23.45;3.70;;;16.20;99.90;;;;;;6360291;22;20018;-68
2022/05/11 07:39:35;;;;;;;11.63;3.55;;;16.30;99.90;;;;;;6363017;22;20332;-72
2022/05/11 07:42:00;;;;;;;16.58;3.63;;;16.30;99.90;;;;;;6363062;22;20010;-68
2022/05/11 07:44:26;;;;;;;14.75;3.60;;;16.40;99.90;;;;;;6363548;22;20328;-67
2022/05/11 07:46:52;;;;;;;15.27;3.65;;;16.40;99.90;;;;;;6361936;22;20056;-68
2022/05/11 07:49:19;;;;;;;12.73;3.38;;;16.30;99.90;;;;;;6362997;22;20015;-66
2022/05/11 07:51:46;;;;;;;14.73;3.33;;;16.30;99.90;;;;;;6362494;22;20025;-71
2022/05/11 07:54:13;;;;;;;10.43;3.40;;;16.40;99.90;;;;;;6361803;22;20071;-68
2022/05/11 08:02:08;;;;;;;11.88;2.70;;;16.60;99.90;;;;;;6362363;22;20083;-74
2022/05/11 08:04:35;;;;;;;10.13;2.83;;;16.60;99.90;;;;;;6363191;22;20048;-65
2022/05/11 08:07:01;;;;;;;9.63;2.95;;;16.70;99.90;;;;;;6359884;22;20060;-66
2022/05/11 08:09:27;;;;;;;10.63;3.17;;;16.80;99.90;;;;;;6363126;22;20343;-65
2022/05/11 08:11:55;;;;;;;13.55;3.13;;;16.80;99.90;;;;;;6363385;22;20049;-66
2022/05/11 08:14:23;;;;;;;10.77;2.92;;;16.80;99.90;;;;;;6363658;22;20022;-66
2022/05/11 08:16:52;;;;;;;7.82;2.85;;;16.80;99.90;;;;;;6352278;22;20114;-65
2022/05/11 08:19:27;;;;;;;10.10;2.95;;;16.90;99.90;;;;;;6331652;22;20025;-65
2022/05/11 08:21:57;;;;;;;10.88;2.95;;;16.90;99.90;;;;;;6358408;22;20440;-65
2022/05/11 08:24:23;;;;;;;8.73;2.65;;;16.90;99.90;;;;;;6357586;22;20021;-65
2022/05/11 08:26:52;;;;;;;7.95;2.90;;;16.90;99.90;;;;;;6358371;22;20140;-65
2022/05/11 08:35:08;;;;;;;10.80;2.80;;;17.40;99.90;;;;;;6237436;22;20020;-66
2022/05/11 08:37:34;;;;;;;7.75;2.58;;;17.70;99.90;;;;;;6264546;22;20027;-64
2022/05/11 08:40:00;;;;;;;11.50;2.58;;;17.80;99.90;;;;;;6264339;22;20091;-64
2022/05/11 08:42:30;;;;;;;10.35;2.50;;;18.00;99.90;;;;;;6265650;22;20089;-64
2022/05/11 08:44:56;;;;;;;6.28;2.60;;;18.00;99.90;;;;;;6239043;22;20107;-64
2022/05/11 08:47:25;;;;;;;10.10;2.47;;;18.10;99.90;;;;;;6264948;22;20430;-64
2022/05/11 08:49:52;;;;;;;9.20;2.78;;;18.40;99.90;;;;;;6265071;22;20019;-66
2022/05/11 08:52:50;;;;;;;6.65;2.10;;;18.20;99.90;;;;;;6265396;22;20031;-64
2022/05/11 08:55:46;;;;;;;10.45;2.40;;;18.20;99.90;;;;;;6142636;23;20018;-64
2022/05/11 08:58:23;;;;;;;9.15;2.45;;;18.30;99.90;;;;;;6119022;23;20084;-65
2022/05/11 09:00:52;;;;;;;10.43;2.15;;;18.20;99.90;;;;;;6144499;23;20124;-64
2022/05/11 09:03:39;;;;;;;11.13;2.17;;;18.30;99.90;;;;;;6184795;22;20089;-65
2022/05/11 09:06:34;;;;;;;9.82;3.10;;;18.60;99.90;;;;;;6264976;22;20073;-65
2022/05/11 09:09:02;;;;;;;12.65;2.10;;;18.90;99.90;;;;;;6173924;23;20040;-64
2022/05/11 09:11:48;;;;;;;8.00;1.92;;;19.10;99.90;;;;;;6173922;23;20109;-64
2022/05/11 09:14:16;;;;;;;9.70;1.90;;;19.40;99.90;;;;;;6173081;23;20121;-64
2022/05/11 09:16:45;;;;;;;9.70;1.75;;;19.40;99.90;;;;;;6173674;23;20025;-64
2022/05/11 09:19:32;;;;;;;8.50;1.80;;;19.40;99.90;;;;;;6173265;23;20021;-67
2022/05/11 09:22:06;;;;;;;7.68;2.03;;;19.20;99.90;;;;;;6173736;23;20525;-63
2022/05/11 09:24:37;;;;;;;8.20;2.00;;;19.10;99.90;;;;;;6172815;23;20021;-65
2022/05/11 09:27:10;;;;;;;9.63;2.40;;;19.10;99.90;;;;;;6172985;23;20016;-64
2022/05/11 09:29:44;;;;;;;10.80;1.70;;;19.10;99.90;;;;;;6173755;23;20028;-65
2022/05/11 09:32:32;;;;;;;6.28;1.60;;;19.20;99.90;;;;;;6188321;22;20023;-65
2022/05/11 09:35:18;;;;;;;9.98;1.98;;;19.40;99.90;;;;;;6264035;22;20024;-68
2022/05/11 09:37:53;;;;;;;7.45;1.65;;;19.70;99.90;;;;;;6263727;22;20091;-64
2022/05/11 09:40:21;;;;;;;7.03;1.92;;;19.90;99.90;;;;;;6238861;22;20055;-65
2022/05/11 09:43:05;;;;;;;8.60;1.55;;;20.20;99.90;;;;;;6239021;22;20439;-64
2022/05/11 09:45:48;;;;;;;8.35;2.00;;;20.40;99.90;;;;;;6316215;22;20014;-64
2022/05/11 09:48:22;;;;;;;12.32;2.20;;;20.30;99.90;;;;;;6361157;22;20115;-64
2022/05/11 09:50:53;;;;;;;11.85;1.85;;;20.30;99.90;;;;;;6361580;22;20027;-64
2022/05/11 09:53:35;;;;;;;8.10;1.42;;;20.20;99.90;;;;;;6361119;22;20054;-64
2022/05/11 09:56:17;;;;;;;9.85;2.22;;;20.20;99.70;;;;;;6357942;22;20022;-65
2022/05/11 09:58:43;;;;;;;;;;;20.20;98.60;;;;;;6361435;22;20014;-63
2022/05/11 10:01:16;;;;;;;8.27;2.00;;;20.30;99.50;;;;;;6355992;22;19920;-64
2022/05/11 10:03:49;;;;;;;7.43;1.90;;;20.40;99.70;;;;;;6356752;22;20634;-69
2022/05/11 10:06:18;;;;;;;7.03;2.20;;;20.40;99.20;;;;;;6358081;22;20025;-65
2022/05/11 10:08:45;;;;;;;7.75;1.63;;;20.60;99.50;;;;;;6359912;22;20053;-66
2022/05/11 10:11:30;;;;;;;11.80;1.80;;;20.70;99.50;;;;;;6362056;22;20014;-66
2022/05/11 10:13:56;;;;;;;11.57;1.95;;;20.90;97.80;;;;;;6358467;22;20063;-66
2022/05/11 10:22:11;;;;;;;9.88;1.63;;;21.20;97.20;;;;;;6360936;22;20022;-65
2022/05/11 10:24:50;;;;;;;9.32;1.75;;;21.00;95.70;;;;;;6359929;22;20837;-66
2022/05/11 10:27:32;;;;;;;10.10;1.70;;;20.60;94.70;;;;;;6361188;22;20030;-67
2022/05/11 10:30:03;;;;;;;5.18;1.20;;;20.80;95.90;;;;;;6362056;22;20079;-66
2022/05/11 10:33:08;;;;;;;7.93;1.58;;;21.20;95.70;;;;;;6359782;22;20072;-75
2022/05/11 10:36:00;;;;;;;8.57;1.50;;;21.40;93.00;;;;;;6359047;22;20022;-76
2022/05/11 10:38:50;;;;;;;10.32;1.83;;;21.70;93.70;;;;;;6361370;22;20019;-71
2022/05/11 10:41:30;;;;;;;7.93;1.58;;;21.90;93.90;;;;;;6361564;22;20023;-74
2022/05/11 10:44:26;;;;;;;10.48;2.17;;;22.00;93.10;;;;;;6362819;22;20101;-73
2022/05/11 10:47:07;;;;;;;6.72;1.73;;;22.00;91.20;;;;;;6361761;22;20086;-74
2022/05/11 10:50:14;;;;;;;8.43;1.63;;;21.70;91.80;;;;;;6362129;22;20019;-65
2022/05/11 10:52:51;;;;;;;10.23;2.28;;;21.50;91.70;;;;;;6361188;22;20040;-67
2022/05/11 10:55:25;;;;;;;6.90;1.40;;;21.60;93.20;;;;;;6360429;22;20444;-68
2022/05/11 10:58:34;;;;;;;7.35;1.30;;;21.40;92.90;;;;;;6359693;22;20110;-66
2022/05/11 11:01:09;;;;;;;9.07;1.40;;;21.10;90.30;;;;;;6263963;22;20023;-66
2022/05/11 11:03:56;;;;;;;11.82;1.35;;;21.00;90.80;;;;;;6263546;22;20081;-68
2022/05/11 11:07:14;;;;;;;11.60;1.52;;;21.10;91.70;;;;;;6265060;22;20125;-66
2022/05/11 11:10:13;;;;;;;6.40;1.60;;;21.40;91.10;;;;;;6267066;22;20058;-78
2022/05/11 11:12:42;;;;;;;5.80;1.27;;;21.60;90.80;;;;;;6264791;22;20813;-80
2022/05/11 11:15:12;;;;;;;6.75;1.30;;;21.90;90.00;;;;;;6265276;22;20460;-65
2022/05/11 11:17:40;;;;;;;7.05;1.17;;;22.00;89.50;;;;;;6265305;22;20019;-79
2022/05/11 11:20:08;;;;;;;7.20;1.50;;;22.20;89.60;;;;;;6266028;22;20065;-78
2022/05/11 11:23:14;;;;;;;4.53;1.00;;;22.20;86.30;;;;;;6265987;22;20765;-75
2022/05/11 11:25:45;;;;;;;13.02;1.63;;;22.30;84.40;;;;;;6265589;22;20098;-82
2022/05/11 11:28:14;;;;;;;8.95;1.70;;;22.30;84.80;;;;;;6265879;22;20020;-79
2022/05/11 11:30:59;;;;;;;3.78;1.00;;;22.30;83.50;;;;;;6238839;22;20028;-68
2022/05/11 11:33:37;;;;;;;9.73;1.50;;;22.30;83.20;;;;;;6265520;22;20023;-66
2022/05/11 11:36:28;;;;;;;8.45;1.13;;;22.40;82.10;;;;;;6241105;22;20020;-68
2022/05/11 11:38:56;;;;;;;5.68;1.23;;;22.60;82.30;;;;;;6364556;22;20022;-65
2022/05/11 11:41:28;;;;;;;9.20;1.80;;;22.40;82.40;;;;;;6361497;22;20045;-66
2022/05/11 11:43:59;;;;;;;16.25;3.15;;;22.30;82.00;;;;;;6359977;22;20019;-70
2022/05/11 11:46:38;;;;;;;17.42;2.00;;;22.40;80.40;;;;;;6362889;22;20228;-69
2022/05/11 11:49:19;;;;;;;11.15;2.22;;;22.50;80.40;;;;;;6363918;22;20029;-68
2022/05/11 11:51:50;;;;;;;11.27;1.63;;;22.60;79.80;;;;;;6363180;22;20478;-68
2022/05/11 11:54:38;;;;;;;6.50;1.63;;;22.60;80.20;;;;;;6360278;22;20026;-68
2022/05/11 11:57:21;;;;;;;6.75;1.52;;;22.70;80.20;;;;;;6367010;22;20033;-71
2022/05/11 11:59:54;;;;;;;7.53;1.42;;;22.70;79.00;;;;;;6336486;22;20107;-69
2022/05/11 12:02:37;;;;;;;10.15;1.70;;;22.40;77.90;;;;;;6361444;22;20721;-74
2022/05/11 12:05:25;;;;;;;6.57;1.33;;;22.00;78.60;;;;;;6362231;22;20081;-67
2022/05/11 12:16:41;;;;;;;6.10;1.38;;;22.00;79.60;;;;;;6266314;22;20024;-70
2022/05/11 12:19:11;;;;;;;9.30;1.58;;;22.30;79.60;;;;;;6241093;22;20019;-66
2022/05/11 12:21:39;;;;;;;7.07;1.42;;;22.50;79.90;;;;;;6265740;22;20024;-70
2022/05/11 12:24:17;;;;;;;6.25;1.17;;;22.70;77.50;;;;;;6238451;22;20016;-65
2022/05/11 12:26:57;;;;;;;5.43;1.17;;;22.80;73.40;;;;;;6239440;22;20059;-68
2022/05/11 12:32:08;;;;;;;4.80;1.30;;;22.70;76.60;;;;;;6264811;22;20022;-66
2022/05/11 12:34:44;;;;;;;9.90;2.35;;;22.40;76.60;;;;;;6238066;22;20785;-64
2022/05/11 12:37:25;;;;;;;10.50;1.50;;;22.30;74.90;;;;;;6264761;22;20429;-68
2022/05/11 12:39:58;;;;;;;10.95;1.55;;;22.40;73.00;;;;;;6265491;22;20023;-67
2022/05/11 12:42:48;;;;;;;8.45;1.88;;;22.40;74.40;;;;;;6266176;22;20178;-65
2022/05/11 12:45:26;;;;;;;4.97;1.20;;;22.20;75.00;;;;;;6240049;22;20468;-71
2022/05/11 12:47:56;;;;;;;5.32;1.10;;;22.30;75.10;;;;;;6240099;22;20015;-68
2022/05/11 12:50:29;;;;;;;6.47;1.30;;;22.40;75.10;;;;;;6270047;22;20029;-67
2022/05/11 12:53:05;;;;;;;7.85;1.35;;;22.50;72.90;;;;;;6362503;22;20034;-67
2022/05/11 12:55:34;;;;;;;11.65;1.92;;;22.60;74.00;;;;;;6362140;22;20439;-72
2022/05/11 12:58:01;;;;;;;4.18;0.93;;;22.40;75.00;;;;;;6335277;22;20042;-74
2022/05/11 13:00:35;;;;;;;4.40;1.02;;;22.30;75.00;;;;;;6335023;22;20010;-72
2022/05/11 13:03:21;;;;;;;9.95;1.23;;;22.10;74.20;;;;;;6362898;22;20044;-69
2022/05/11 13:05:47;;;;;;;8.63;1.27;;;21.80;73.50;;;;;;6361092;22;20109;-69
2022/05/11 13:08:14;;;;;;;6.97;1.30;;;21.90;74.80;;;;;;6361188;22;20780;-68
2022/05/11 13:10:41;;;;;;;12.15;1.50;;;22.00;73.90;;;;;;6334814;22;20025;-73
2022/05/11 13:13:15;;;;;;;7.75;1.27;;;22.30;73.80;;;;;;6361486;22;20029;-69
2022/05/11 13:15:44;;;;;;;4.05;1.17;;;22.50;71.20;;;;;;6333648;22;20052;-68
2022/05/11 13:18:31;;;;;;;7.07;1.40;;;22.70;73.20;;;;;;6334503;22;20094;-65
2022/05/11 13:21:00;;;;;;;6.63;1.25;;;22.90;71.70;;;;;;6334496;22;20014;-68
2022/05/11 13:23:34;;;;;;;12.32;1.50;;;23.00;71.30;;;;;;6334849;22;20332;-67
2022/05/11 13:26:24;;;;;;;8.90;1.45;;;23.00;70.10;;;;;;6334305;22;20021;-66
2022/05/11 13:28:59;;;;;;;8.52;1.60;;;23.20;69.50;;;;;;6361183;22;20026;-69
2022/05/11 13:31:36;;;;;;;13.45;1.80;;;23.20;69.40;;;;;;6363103;22;20088;-75
2022/05/11 13:34:34;;;;;;;7.15;1.63;;;23.30;71.30;;;;;;6307256;22;20021;-71
2022/05/11 13:37:06;;;;;;;7.85;1.88;;;23.30;70.10;;;;;;6362038;22;20022;-74
2022/05/11 13:39:39;;;;;;;8.75;2.10;;;23.20;69.60;;;;;;6360069;22;20052;-73
2022/05/11 13:42:25;;;;;;;8.10;1.60;;;23.20;69.50;;;;;;6360323;22;20026;-72
2022/05/11 13:45:20;;;;;;;5.97;1.77;;;23.20;66.70;;;;;;6334284;22;20087;-73
2022/05/11 13:48:11;;;;;;;6.75;1.33;;;23.30;67.30;;;;;;6335066;22;20032;-76
2022/05/11 13:50:51;;;;;;;10.52;1.73;;;23.00;67.10;;;;;;6333084;22;20022;-71